sensor_id;sensor_type;location;lat;lon;timestamp;temperature;humidity
21439;DHT22;10880;50.302;18.736;2022-07-05T00:01:31;28.20;45.70
21439;DHT22;10880;50.302;18.736;2022-07-05T00:03:58;28.20;45.50
21439;DHT22;10880;50.302;18.736;2022-07-05T00:06:24;28.20;46.00
21439;DHT22;10880;50.302;18.736;2022-07-05T00:08:51;28.10;45.90
21439;DHT22;10880;50.302;18.736;2022-07-05T00:11:17;28.10;46.10
21439;DHT22;10880;50.302;18.736;2022-07-05T00:13:43;28.10;46.10
21439;DHT22;10880;50.302;18.736;2022-07-05T00:16:10;28.00;46.20
21439;DHT22;10880;50.302;18.736;2022-07-05T00:18:36;28.00;46.20
21439;DHT22;10880;50.302;18.736;2022-07-05T00:21:02;27.90;46.10
21439;DHT22;10880;50.302;18.736;2022-07-05T00:23:29;27.90;46.10
21439;DHT22;10880;50.302;18.736;2022-07-05T00:25:55;27.90;44.90
21439;DHT22;10880;50.302;18.736;2022-07-05T00:28:22;27.80;44.60
21439;DHT22;10880;50.302;18.736;2022-07-05T00:30:48;27.80;45.70
21439;DHT22;10880;50.302;18.736;2022-07-05T00:33:17;27.80;46.30
21439;DHT22;10880;50.302;18.736;2022-07-05T00:35:44;27.70;46.20
21439;DHT22;10880;50.302;18.736;2022-07-05T00:38:10;27.70;47.00
21439;DHT22;10880;50.302;18.736;2022-07-05T00:40:37;27.70;45.20
21439;DHT22;10880;50.302;18.736;2022-07-05T00:43:04;27.60;47.00
21439;DHT22;10880;50.302;18.736;2022-07-05T00:45:30;27.60;47.20
21439;DHT22;10880;50.302;18.736;2022-07-05T00:47:57;27.60;46.80
21439;DHT22;10880;50.302;18.736;2022-07-05T00:50:23;27.50;46.90
21439;DHT22;10880;50.302;18.736;2022-07-05T00:52:53;27.50;46.70
21439;DHT22;10880;50.302;18.736;2022-07-05T00:55:20;27.50;48.00
21439;DHT22;10880;50.302;18.736;2022-07-05T00:57:46;27.50;47.70
21439;DHT22;10880;50.302;18.736;2022-07-05T01:00:17;27.40;47.90
21439;DHT22;10880;50.302;18.736;2022-07-05T01:02:43;27.40;48.10
21439;DHT22;10880;50.302;18.736;2022-07-05T01:05:10;27.40;47.60
21439;DHT22;10880;50.302;18.736;2022-07-05T01:07:40;27.40;48.00
21439;DHT22;10880;50.302;18.736;2022-07-05T01:10:07;27.40;48.50
21439;DHT22;10880;50.302;18.736;2022-07-05T01:12:38;27.40;48.40
21439;DHT22;10880;50.302;18.736;2022-07-05T01:15:07;27.40;48.40
21439;DHT22;10880;50.302;18.736;2022-07-05T01:17:35;27.40;48.50
21439;DHT22;10880;50.302;18.736;2022-07-05T01:20:07;27.40;48.60
21439;DHT22;10880;50.302;18.736;2022-07-05T01:22:55;27.30;48.60
21439;DHT22;10880;50.302;18.736;2022-07-05T01:25:24;27.30;48.80
21439;DHT22;10880;50.302;18.736;2022-07-05T01:27:52;27.30;48.70
21439;DHT22;10880;50.302;18.736;2022-07-05T01:30:20;27.30;48.80
21439;DHT22;10880;50.302;18.736;2022-07-05T01:32:48;27.30;48.90
21439;DHT22;10880;50.302;18.736;2022-07-05T01:35:17;27.30;48.60
21439;DHT22;10880;50.302;18.736;2022-07-05T01:37:48;27.30;49.00
21439;DHT22;10880;50.302;18.736;2022-07-05T01:40:18;27.30;49.10
21439;DHT22;10880;50.302;18.736;2022-07-05T01:42:49;27.20;49.10
21439;DHT22;10880;50.302;18.736;2022-07-05T01:45:17;27.20;48.90
21439;DHT22;10880;50.302;18.736;2022-07-05T01:48:04;27.20;49.20
21439;DHT22;10880;50.302;18.736;2022-07-05T01:50:36;27.20;49.30
21439;DHT22;10880;50.302;18.736;2022-07-05T01:53:03;27.20;49.40
21439;DHT22;10880;50.302;18.736;2022-07-05T01:55:31;27.20;49.30
21439;DHT22;10880;50.302;18.736;2022-07-05T01:57:57;27.20;48.90
21439;DHT22;10880;50.302;18.736;2022-07-05T02:00:24;27.10;49.40
21439;DHT22;10880;50.302;18.736;2022-07-05T02:02:51;27.10;48.80
21439;DHT22;10880;50.302;18.736;2022-07-05T02:05:20;27.10;49.40
21439;DHT22;10880;50.302;18.736;2022-07-05T02:07:48;27.10;49.20
21439;DHT22;10880;50.302;18.736;2022-07-05T02:10:16;27.10;49.60
21439;DHT22;10880;50.302;18.736;2022-07-05T02:12:43;27.10;49.70
21439;DHT22;10880;50.302;18.736;2022-07-05T02:15:10;27.10;49.30
21439;DHT22;10880;50.302;18.736;2022-07-05T02:17:37;27.10;49.40
21439;DHT22;10880;50.302;18.736;2022-07-05T02:20:05;27.10;49.70
21439;DHT22;10880;50.302;18.736;2022-07-05T02:22:35;27.10;49.50
21439;DHT22;10880;50.302;18.736;2022-07-05T02:25:05;27.10;49.80
21439;DHT22;10880;50.302;18.736;2022-07-05T02:27:35;27.10;49.00
21439;DHT22;10880;50.302;18.736;2022-07-05T02:30:02;27.10;49.60
21439;DHT22;10880;50.302;18.736;2022-07-05T02:32:36;27.10;49.80
21439;DHT22;10880;50.302;18.736;2022-07-05T02:35:04;27.10;49.70
21439;DHT22;10880;50.302;18.736;2022-07-05T02:37:38;27.00;49.90
21439;DHT22;10880;50.302;18.736;2022-07-05T02:40:08;27.00;50.00
21439;DHT22;10880;50.302;18.736;2022-07-05T02:42:41;27.00;49.80
21439;DHT22;10880;50.302;18.736;2022-07-05T02:45:10;27.00;49.60
21439;DHT22;10880;50.302;18.736;2022-07-05T02:47:37;27.00;49.60
21439;DHT22;10880;50.302;18.736;2022-07-05T02:50:06;27.00;49.50
21439;DHT22;10880;50.302;18.736;2022-07-05T02:52:38;27.00;49.90
21439;DHT22;10880;50.302;18.736;2022-07-05T02:55:05;27.00;49.70
21439;DHT22;10880;50.302;18.736;2022-07-05T02:57:32;27.00;50.40
21439;DHT22;10880;50.302;18.736;2022-07-05T03:00:03;27.00;49.40
21439;DHT22;10880;50.302;18.736;2022-07-05T03:02:38;27.00;49.80
21439;DHT22;10880;50.302;18.736;2022-07-05T03:05:05;27.00;49.60
21439;DHT22;10880;50.302;18.736;2022-07-05T03:07:32;26.90;49.60
21439;DHT22;10880;50.302;18.736;2022-07-05T03:10:00;26.90;49.60
21439;DHT22;10880;50.302;18.736;2022-07-05T03:12:27;26.90;49.60
21439;DHT22;10880;50.302;18.736;2022-07-05T03:14:53;26.90;49.40
21439;DHT22;10880;50.302;18.736;2022-07-05T03:17:23;26.80;48.80
21439;DHT22;10880;50.302;18.736;2022-07-05T03:19:50;26.80;49.30
21439;DHT22;10880;50.302;18.736;2022-07-05T03:22:20;26.80;49.50
21439;DHT22;10880;50.302;18.736;2022-07-05T03:24:46;26.80;48.50
21439;DHT22;10880;50.302;18.736;2022-07-05T03:27:13;26.80;48.80
21439;DHT22;10880;50.302;18.736;2022-07-05T03:29:40;26.80;49.10
21439;DHT22;10880;50.302;18.736;2022-07-05T03:32:06;26.80;48.80
21439;DHT22;10880;50.302;18.736;2022-07-05T03:34:33;26.80;49.80
21439;DHT22;10880;50.302;18.736;2022-07-05T03:37:02;26.80;50.00
21439;DHT22;10880;50.302;18.736;2022-07-05T03:39:29;26.80;50.10
21439;DHT22;10880;50.302;18.736;2022-07-05T03:41:56;26.70;49.80
21439;DHT22;10880;50.302;18.736;2022-07-05T03:44:25;26.70;50.30
21439;DHT22;10880;50.302;18.736;2022-07-05T03:46:54;26.70;50.60
21439;DHT22;10880;50.302;18.736;2022-07-05T03:49:20;26.70;50.50
21439;DHT22;10880;50.302;18.736;2022-07-05T03:51:48;26.70;50.70
21439;DHT22;10880;50.302;18.736;2022-07-05T03:54:15;26.70;50.70
21439;DHT22;10880;50.302;18.736;2022-07-05T03:56:41;26.70;50.80
21439;DHT22;10880;50.302;18.736;2022-07-05T03:59:11;26.60;51.00
21439;DHT22;10880;50.302;18.736;2022-07-05T04:01:38;26.60;50.90
21439;DHT22;10880;50.302;18.736;2022-07-05T04:04:05;26.60;51.20
21439;DHT22;10880;50.302;18.736;2022-07-05T04:06:32;26.60;51.30
21439;DHT22;10880;50.302;18.736;2022-07-05T04:09:01;26.60;51.40
21439;DHT22;10880;50.302;18.736;2022-07-05T04:11:28;26.60;51.50
21439;DHT22;10880;50.302;18.736;2022-07-05T04:14:00;26.60;51.60
21439;DHT22;10880;50.302;18.736;2022-07-05T04:16:27;26.50;52.20
21439;DHT22;10880;50.302;18.736;2022-07-05T04:18:54;26.50;51.80
21439;DHT22;10880;50.302;18.736;2022-07-05T04:21:27;26.50;51.90
21439;DHT22;10880;50.302;18.736;2022-07-05T04:23:54;26.50;52.00
21439;DHT22;10880;50.302;18.736;2022-07-05T04:26:21;26.50;51.70
21439;DHT22;10880;50.302;18.736;2022-07-05T04:28:47;26.50;51.90
21439;DHT22;10880;50.302;18.736;2022-07-05T04:31:21;26.50;52.00
21439;DHT22;10880;50.302;18.736;2022-07-05T04:33:49;26.50;52.40
21439;DHT22;10880;50.302;18.736;2022-07-05T04:36:20;26.50;52.50
21439;DHT22;10880;50.302;18.736;2022-07-05T04:38:51;26.50;52.50
21439;DHT22;10880;50.302;18.736;2022-07-05T04:41:17;26.50;52.50
21439;DHT22;10880;50.302;18.736;2022-07-05T04:43:44;26.50;52.70
21439;DHT22;10880;50.302;18.736;2022-07-05T04:46:14;26.40;52.70
21439;DHT22;10880;50.302;18.736;2022-07-05T04:48:41;26.40;52.70
21439;DHT22;10880;50.302;18.736;2022-07-05T04:51:11;26.40;53.20
21439;DHT22;10880;50.302;18.736;2022-07-05T04:53:37;26.40;53.10
21439;DHT22;10880;50.302;18.736;2022-07-05T04:56:06;26.40;53.10
21439;DHT22;10880;50.302;18.736;2022-07-05T04:58:33;26.40;53.30
21439;DHT22;10880;50.302;18.736;2022-07-05T05:00:59;26.40;53.10
21439;DHT22;10880;50.302;18.736;2022-07-05T05:03:27;26.40;52.40
21439;DHT22;10880;50.302;18.736;2022-07-05T05:05:54;26.40;52.80
21439;DHT22;10880;50.302;18.736;2022-07-05T05:08:20;26.40;53.10
21439;DHT22;10880;50.302;18.736;2022-07-05T05:10:46;26.40;53.40
21439;DHT22;10880;50.302;18.736;2022-07-05T05:13:13;26.40;53.40
21439;DHT22;10880;50.302;18.736;2022-07-05T05:15:39;26.40;53.40
21439;DHT22;10880;50.302;18.736;2022-07-05T05:18:07;26.40;53.30
21439;DHT22;10880;50.302;18.736;2022-07-05T05:20:33;26.40;53.20
21439;DHT22;10880;50.302;18.736;2022-07-05T05:23:00;26.40;53.50
21439;DHT22;10880;50.302;18.736;2022-07-05T05:25:30;26.40;54.00
21439;DHT22;10880;50.302;18.736;2022-07-05T05:28:00;26.40;53.30
21439;DHT22;10880;50.302;18.736;2022-07-05T05:30:27;26.40;53.50
21439;DHT22;10880;50.302;18.736;2022-07-05T05:32:53;26.40;53.30
21439;DHT22;10880;50.302;18.736;2022-07-05T05:35:22;26.40;52.80
21439;DHT22;10880;50.302;18.736;2022-07-05T05:37:52;26.40;53.80
21439;DHT22;10880;50.302;18.736;2022-07-05T05:40:22;26.10;53.80
21439;DHT22;10880;50.302;18.736;2022-07-05T05:42:52;26.40;54.20
21439;DHT22;10880;50.302;18.736;2022-07-05T05:45:20;26.40;54.30
21439;DHT22;10880;50.302;18.736;2022-07-05T05:47:57;26.40;53.90
21439;DHT22;10880;50.302;18.736;2022-07-05T05:50:29;26.40;54.70
21439;DHT22;10880;50.302;18.736;2022-07-05T05:52:57;26.40;54.80
21439;DHT22;10880;50.302;18.736;2022-07-05T05:55:26;26.40;54.70
21439;DHT22;10880;50.302;18.736;2022-07-05T05:57:54;26.40;54.80
21439;DHT22;10880;50.302;18.736;2022-07-05T06:00:23;26.40;54.80
21439;DHT22;10880;50.302;18.736;2022-07-05T06:02:50;26.40;54.40
21439;DHT22;10880;50.302;18.736;2022-07-05T06:05:17;26.40;53.90
21439;DHT22;10880;50.302;18.736;2022-07-05T06:07:45;26.40;54.00
21439;DHT22;10880;50.302;18.736;2022-07-05T06:10:19;26.40;55.10
21439;DHT22;10880;50.302;18.736;2022-07-05T06:12:58;26.10;55.00
21439;DHT22;10880;50.302;18.736;2022-07-05T06:15:25;26.40;55.00
21439;DHT22;10880;50.302;18.736;2022-07-05T06:17:53;26.40;54.10
21439;DHT22;10880;50.302;18.736;2022-07-05T06:20:22;26.40;54.90
21439;DHT22;10880;50.302;18.736;2022-07-05T06:22:51;26.40;55.30
21439;DHT22;10880;50.302;18.736;2022-07-05T06:25:18;26.40;54.90
21439;DHT22;10880;50.302;18.736;2022-07-05T06:27:47;26.40;54.90
21439;DHT22;10880;50.302;18.736;2022-07-05T06:30:16;26.40;55.50
21439;DHT22;10880;50.302;18.736;2022-07-05T06:32:49;26.40;55.50
21439;DHT22;10880;50.302;18.736;2022-07-05T06:35:17;26.40;55.60
21439;DHT22;10880;50.302;18.736;2022-07-05T06:37:45;26.40;55.20
21439;DHT22;10880;50.302;18.736;2022-07-05T06:40:20;26.40;55.70
21439;DHT22;10880;50.302;18.736;2022-07-05T06:42:51;26.40;56.10
21439;DHT22;10880;50.302;18.736;2022-07-05T06:45:23;26.30;55.50
21439;DHT22;10880;50.302;18.736;2022-07-05T06:48:00;26.40;56.00
21439;DHT22;10880;50.302;18.736;2022-07-05T06:50:30;26.40;57.10
21439;DHT22;10880;50.302;18.736;2022-07-05T06:53:01;26.40;56.40
21439;DHT22;10880;50.302;18.736;2022-07-05T06:55:30;26.40;56.50
21439;DHT22;10880;50.302;18.736;2022-07-05T06:58:05;26.40;56.10
21439;DHT22;10880;50.302;18.736;2022-07-05T07:00:32;25.80;56.50
21439;DHT22;10880;50.302;18.736;2022-07-05T07:03:00;26.30;56.50
21439;DHT22;10880;50.302;18.736;2022-07-05T07:05:27;26.30;56.40
21439;DHT22;10880;50.302;18.736;2022-07-05T07:07:56;26.40;56.80
21439;DHT22;10880;50.302;18.736;2022-07-05T07:10:41;26.40;56.60
21439;DHT22;10880;50.302;18.736;2022-07-05T07:13:07;26.30;56.50
21439;DHT22;10880;50.302;18.736;2022-07-05T07:15:34;26.40;56.60
21439;DHT22;10880;50.302;18.736;2022-07-05T07:18:11;26.40;56.90
21439;DHT22;10880;50.302;18.736;2022-07-05T07:20:39;26.40;57.20
21439;DHT22;10880;50.302;18.736;2022-07-05T07:23:09;26.40;56.40
21439;DHT22;10880;50.302;18.736;2022-07-05T07:25:36;26.40;57.20
21439;DHT22;10880;50.302;18.736;2022-07-05T07:28:03;26.30;55.10
21439;DHT22;10880;50.302;18.736;2022-07-05T07:30:31;26.40;56.60
21439;DHT22;10880;50.302;18.736;2022-07-05T07:32:58;26.40;56.80
21439;DHT22;10880;50.302;18.736;2022-07-05T07:35:25;26.40;57.00
21439;DHT22;10880;50.302;18.736;2022-07-05T07:37:51;26.40;56.60
21439;DHT22;10880;50.302;18.736;2022-07-05T07:40:18;26.40;56.80
21439;DHT22;10880;50.302;18.736;2022-07-05T07:42:44;26.40;56.70
21439;DHT22;10880;50.302;18.736;2022-07-05T07:45:11;26.40;57.00
21439;DHT22;10880;50.302;18.736;2022-07-05T07:47:37;26.40;57.00
21439;DHT22;10880;50.302;18.736;2022-07-05T07:50:09;26.40;57.10
21439;DHT22;10880;50.302;18.736;2022-07-05T07:52:35;26.40;57.00
21439;DHT22;10880;50.302;18.736;2022-07-05T07:55:05;26.30;57.10
21439;DHT22;10880;50.302;18.736;2022-07-05T07:57:43;26.30;57.40
21439;DHT22;10880;50.302;18.736;2022-07-05T08:00:09;26.30;56.90
21439;DHT22;10880;50.302;18.736;2022-07-05T08:02:40;26.30;57.20
21439;DHT22;10880;50.302;18.736;2022-07-05T08:05:06;26.40;57.00
21439;DHT22;10880;50.302;18.736;2022-07-05T08:07:36;26.40;57.30
21439;DHT22;10880;50.302;18.736;2022-07-05T08:10:06;26.40;57.50
21439;DHT22;10880;50.302;18.736;2022-07-05T08:12:34;26.40;57.60
21439;DHT22;10880;50.302;18.736;2022-07-05T08:15:01;26.40;57.00
21439;DHT22;10880;50.302;18.736;2022-07-05T08:17:27;26.40;57.10
21439;DHT22;10880;50.302;18.736;2022-07-05T08:19:54;26.40;57.00
21439;DHT22;10880;50.302;18.736;2022-07-05T08:22:39;26.40;57.40
21439;DHT22;10880;50.302;18.736;2022-07-05T08:25:06;26.40;57.00
21439;DHT22;10880;50.302;18.736;2022-07-05T08:27:35;26.40;57.50
21439;DHT22;10880;50.302;18.736;2022-07-05T08:30:03;26.40;57.40
21439;DHT22;10880;50.302;18.736;2022-07-05T08:32:29;26.40;57.50
21439;DHT22;10880;50.302;18.736;2022-07-05T08:34:56;26.40;57.10
21439;DHT22;10880;50.302;18.736;2022-07-05T08:37:23;26.20;57.80
21439;DHT22;10880;50.302;18.736;2022-07-05T08:39:49;26.40;57.00
21439;DHT22;10880;50.302;18.736;2022-07-05T08:42:16;26.50;57.20
21439;DHT22;10880;50.302;18.736;2022-07-05T08:44:44;26.40;57.30
21439;DHT22;10880;50.302;18.736;2022-07-05T08:47:12;26.50;57.60
21439;DHT22;10880;50.302;18.736;2022-07-05T08:49:40;26.50;57.50
21439;DHT22;10880;50.302;18.736;2022-07-05T08:52:11;26.50;57.50
21439;DHT22;10880;50.302;18.736;2022-07-05T08:54:39;26.50;57.50
21439;DHT22;10880;50.302;18.736;2022-07-05T08:57:06;26.50;56.50
21439;DHT22;10880;50.302;18.736;2022-07-05T08:59:35;26.50;57.20
21439;DHT22;10880;50.302;18.736;2022-07-05T09:02:02;26.50;57.10
21439;DHT22;10880;50.302;18.736;2022-07-05T09:04:33;26.50;57.50
21439;DHT22;10880;50.302;18.736;2022-07-05T09:07:05;26.50;57.60
21439;DHT22;10880;50.302;18.736;2022-07-05T09:09:38;26.50;57.50
21439;DHT22;10880;50.302;18.736;2022-07-05T09:12:12;26.50;57.50
21439;DHT22;10880;50.302;18.736;2022-07-05T09:14:41;26.50;57.40
21439;DHT22;10880;50.302;18.736;2022-07-05T09:17:08;26.50;56.90
21439;DHT22;10880;50.302;18.736;2022-07-05T09:19:34;26.50;57.30
21439;DHT22;10880;50.302;18.736;2022-07-05T09:22:04;26.50;57.60
21439;DHT22;10880;50.302;18.736;2022-07-05T09:24:45;26.50;57.50
21439;DHT22;10880;50.302;18.736;2022-07-05T09:27:12;26.50;57.50
21439;DHT22;10880;50.302;18.736;2022-07-05T09:29:54;26.50;57.00
21439;DHT22;10880;50.302;18.736;2022-07-05T09:32:25;26.50;57.50
21439;DHT22;10880;50.302;18.736;2022-07-05T09:34:52;26.60;57.10
21439;DHT22;10880;50.302;18.736;2022-07-05T09:37:18;26.60;56.80
21439;DHT22;10880;50.302;18.736;2022-07-05T09:39:45;26.60;56.70
21439;DHT22;10880;50.302;18.736;2022-07-05T09:42:23;26.60;57.10
21439;DHT22;10880;50.302;18.736;2022-07-05T09:44:57;26.60;57.60
21439;DHT22;10880;50.302;18.736;2022-07-05T09:47:27;26.60;57.30
21439;DHT22;10880;50.302;18.736;2022-07-05T09:49:55;26.60;57.40
21439;DHT22;10880;50.302;18.736;2022-07-05T09:52:39;26.60;57.40
21439;DHT22;10880;50.302;18.736;2022-07-05T09:55:14;26.60;57.60
21439;DHT22;10880;50.302;18.736;2022-07-05T09:57:47;26.70;57.60
21439;DHT22;10880;50.302;18.736;2022-07-05T10:00:17;26.70;57.00
21439;DHT22;10880;50.302;18.736;2022-07-05T10:05:24;26.70;57.50
21439;DHT22;10880;50.302;18.736;2022-07-05T10:07:54;26.70;57.50
21439;DHT22;10880;50.302;18.736;2022-07-05T10:10:23;26.70;57.40
21439;DHT22;10880;50.302;18.736;2022-07-05T10:12:59;26.70;57.30
21439;DHT22;10880;50.302;18.736;2022-07-05T10:15:36;26.70;57.40
21439;DHT22;10880;50.302;18.736;2022-07-05T10:23:09;26.70;57.30
21439;DHT22;10880;50.302;18.736;2022-07-05T10:25:40;26.70;57.40
21439;DHT22;10880;50.302;18.736;2022-07-05T10:28:07;26.70;57.40
21439;DHT22;10880;50.302;18.736;2022-07-05T10:30:35;26.70;57.40
21439;DHT22;10880;50.302;18.736;2022-07-05T10:33:05;26.70;57.50
21439;DHT22;10880;50.302;18.736;2022-07-05T10:35:35;26.80;57.50
21439;DHT22;10880;50.302;18.736;2022-07-05T10:38:04;26.80;57.20
21439;DHT22;10880;50.302;18.736;2022-07-05T10:40:34;26.80;57.70
21439;DHT22;10880;50.302;18.736;2022-07-05T10:43:02;26.80;57.10
21439;DHT22;10880;50.302;18.736;2022-07-05T10:45:36;26.80;57.40
21439;DHT22;10880;50.302;18.736;2022-07-05T10:48:21;26.80;57.20
21439;DHT22;10880;50.302;18.736;2022-07-05T10:51:13;26.80;57.80
21439;DHT22;10880;50.302;18.736;2022-07-05T10:56:15;26.80;57.70
21439;DHT22;10880;50.302;18.736;2022-07-05T10:58:46;26.80;56.70
21439;DHT22;10880;50.302;18.736;2022-07-05T11:03:48;26.90;56.10
21439;DHT22;10880;50.302;18.736;2022-07-05T11:06:23;26.80;57.20
21439;DHT22;10880;50.302;18.736;2022-07-05T11:11:40;26.90;57.80
21439;DHT22;10880;50.302;18.736;2022-07-05T11:22:25;26.80;57.60
21439;DHT22;10880;50.302;18.736;2022-07-05T11:24:55;26.80;57.70
21439;DHT22;10880;50.302;18.736;2022-07-05T11:27:25;26.80;57.90
21439;DHT22;10880;50.302;18.736;2022-07-05T11:29:52;26.90;56.90
21439;DHT22;10880;50.302;18.736;2022-07-05T11:34:52;26.80;57.70
21439;DHT22;10880;50.302;18.736;2022-07-05T11:37:26;26.80;58.20
21439;DHT22;10880;50.302;18.736;2022-07-05T11:42:49;26.80;57.80
21439;DHT22;10880;50.302;18.736;2022-07-05T11:45:16;26.80;58.10
21439;DHT22;10880;50.302;18.736;2022-07-05T11:47:43;26.80;58.10
21439;DHT22;10880;50.302;18.736;2022-07-05T11:50:11;26.80;56.70
21439;DHT22;10880;50.302;18.736;2022-07-05T11:52:40;26.70;58.00
21439;DHT22;10880;50.302;18.736;2022-07-05T11:55:19;26.80;59.00
21439;DHT22;10880;50.302;18.736;2022-07-05T11:57:52;26.70;58.00
21439;DHT22;10880;50.302;18.736;2022-07-05T12:00:32;26.80;58.40
21439;DHT22;10880;50.302;18.736;2022-07-05T12:02:59;26.70;58.60
21439;DHT22;10880;50.302;18.736;2022-07-05T12:05:31;26.70;58.30
21439;DHT22;10880;50.302;18.736;2022-07-05T12:08:05;26.70;58.60
21439;DHT22;10880;50.302;18.736;2022-07-05T12:10:32;26.70;58.20
21439;DHT22;10880;50.302;18.736;2022-07-05T12:13:17;26.70;58.40
21439;DHT22;10880;50.302;18.736;2022-07-05T12:15:43;26.70;57.90
21439;DHT22;10880;50.302;18.736;2022-07-05T12:18:13;26.70;58.40
21439;DHT22;10880;50.302;18.736;2022-07-05T12:20:41;26.60;58.40
21439;DHT22;10880;50.302;18.736;2022-07-05T12:23:08;26.70;58.40
21439;DHT22;10880;50.302;18.736;2022-07-05T12:25:35;26.60;58.40
21439;DHT22;10880;50.302;18.736;2022-07-05T12:28:03;26.60;58.70
21439;DHT22;10880;50.302;18.736;2022-07-05T12:30:33;26.60;58.90
21439;DHT22;10880;50.302;18.736;2022-07-05T12:35:47;26.60;59.10
21439;DHT22;10880;50.302;18.736;2022-07-05T12:38:19;26.60;58.80
21439;DHT22;10880;50.302;18.736;2022-07-05T12:40:58;26.50;58.80
21439;DHT22;10880;50.302;18.736;2022-07-05T12:43:26;26.50;58.90
21439;DHT22;10880;50.302;18.736;2022-07-05T12:46:04;26.50;58.50
21439;DHT22;10880;50.302;18.736;2022-07-05T12:48:37;26.50;58.80
21439;DHT22;10880;50.302;18.736;2022-07-05T12:51:08;26.50;58.70
21439;DHT22;10880;50.302;18.736;2022-07-05T12:53:45;26.50;58.70
21439;DHT22;10880;50.302;18.736;2022-07-05T12:56:30;26.40;58.80
21439;DHT22;10880;50.302;18.736;2022-07-05T12:59:15;26.40;58.70
21439;DHT22;10880;50.302;18.736;2022-07-05T13:01:44;26.40;58.80
21439;DHT22;10880;50.302;18.736;2022-07-05T13:04:13;26.30;58.70
21439;DHT22;10880;50.302;18.736;2022-07-05T13:06:49;26.30;59.00
21439;DHT22;10880;50.302;18.736;2022-07-05T13:09:31;26.30;59.20
21439;DHT22;10880;50.302;18.736;2022-07-05T13:12:17;26.30;59.30
21439;DHT22;10880;50.302;18.736;2022-07-05T13:14:49;26.30;59.40
21439;DHT22;10880;50.302;18.736;2022-07-05T13:17:19;26.30;59.10
21439;DHT22;10880;50.302;18.736;2022-07-05T13:19:49;26.20;59.10
21439;DHT22;10880;50.302;18.736;2022-07-05T13:22:16;26.20;59.20
21439;DHT22;10880;50.302;18.736;2022-07-05T13:24:44;26.20;59.20
21439;DHT22;10880;50.302;18.736;2022-07-05T13:27:13;26.20;59.10
21439;DHT22;10880;50.302;18.736;2022-07-05T13:29:41;26.20;59.40
21439;DHT22;10880;50.302;18.736;2022-07-05T13:32:08;26.20;58.80
21439;DHT22;10880;50.302;18.736;2022-07-05T13:34:36;26.20;59.40
21439;DHT22;10880;50.302;18.736;2022-07-05T13:37:03;26.20;58.90
21439;DHT22;10880;50.302;18.736;2022-07-05T13:39:31;26.10;59.20
21439;DHT22;10880;50.302;18.736;2022-07-05T13:41:57;26.10;59.00
21439;DHT22;10880;50.302;18.736;2022-07-05T13:44:28;26.10;59.40
21439;DHT22;10880;50.302;18.736;2022-07-05T13:46:54;26.10;58.80
21439;DHT22;10880;50.302;18.736;2022-07-05T13:49:21;26.10;59.20
21439;DHT22;10880;50.302;18.736;2022-07-05T13:51:50;26.10;59.40
21439;DHT22;10880;50.302;18.736;2022-07-05T13:54:16;26.10;59.40
21439;DHT22;10880;50.302;18.736;2022-07-05T13:56:43;26.10;59.50
21439;DHT22;10880;50.302;18.736;2022-07-05T13:59:09;26.10;59.40
21439;DHT22;10880;50.302;18.736;2022-07-05T14:01:36;26.10;59.40
21439;DHT22;10880;50.302;18.736;2022-07-05T14:04:03;26.10;59.60
21439;DHT22;10880;50.302;18.736;2022-07-05T14:06:31;26.10;59.80
21439;DHT22;10880;50.302;18.736;2022-07-05T14:09:02;26.10;60.10
21439;DHT22;10880;50.302;18.736;2022-07-05T14:11:29;26.10;59.90
21439;DHT22;10880;50.302;18.736;2022-07-05T14:13:59;25.90;60.80
21439;DHT22;10880;50.302;18.736;2022-07-05T14:16:28;25.90;61.30
21439;DHT22;10880;50.302;18.736;2022-07-05T14:18:56;26.00;60.80
21439;DHT22;10880;50.302;18.736;2022-07-05T14:21:22;26.00;61.10
21439;DHT22;10880;50.302;18.736;2022-07-05T14:23:50;26.00;59.70
21439;DHT22;10880;50.302;18.736;2022-07-05T14:26:16;26.00;60.40
21439;DHT22;10880;50.302;18.736;2022-07-05T14:28:43;26.00;60.00
21439;DHT22;10880;50.302;18.736;2022-07-05T14:31:10;26.10;60.00
21439;DHT22;10880;50.302;18.736;2022-07-05T14:33:46;26.10;60.60
21439;DHT22;10880;50.302;18.736;2022-07-05T14:36:12;26.10;60.20
21439;DHT22;10880;50.302;18.736;2022-07-05T14:38:38;26.10;60.10
21439;DHT22;10880;50.302;18.736;2022-07-05T14:41:05;26.00;59.80
21439;DHT22;10880;50.302;18.736;2022-07-05T14:43:31;26.00;59.90
21439;DHT22;10880;50.302;18.736;2022-07-05T14:45:57;26.00;59.80
21439;DHT22;10880;50.302;18.736;2022-07-05T14:48:24;26.00;60.00
21439;DHT22;10880;50.302;18.736;2022-07-05T14:50:50;26.00;59.80
21439;DHT22;10880;50.302;18.736;2022-07-05T14:53:16;26.00;59.90
21439;DHT22;10880;50.302;18.736;2022-07-05T14:55:45;26.00;60.40
21439;DHT22;10880;50.302;18.736;2022-07-05T14:58:11;26.00;60.40
21439;DHT22;10880;50.302;18.736;2022-07-05T15:00:38;26.00;60.10
21439;DHT22;10880;50.302;18.736;2022-07-05T15:03:04;25.90;60.00
21439;DHT22;10880;50.302;18.736;2022-07-05T15:05:32;25.90;60.40
21439;DHT22;10880;50.302;18.736;2022-07-05T15:07:59;25.90;61.10
21439;DHT22;10880;50.302;18.736;2022-07-05T15:10:28;25.90;60.70
21439;DHT22;10880;50.302;18.736;2022-07-05T15:12:55;25.90;60.60
21439;DHT22;10880;50.302;18.736;2022-07-05T15:15:22;25.90;60.70
21439;DHT22;10880;50.302;18.736;2022-07-05T15:17:49;25.90;60.50
21439;DHT22;10880;50.302;18.736;2022-07-05T15:20:15;25.90;60.50
21439;DHT22;10880;50.302;18.736;2022-07-05T15:22:45;25.90;60.80
21439;DHT22;10880;50.302;18.736;2022-07-05T15:25:17;25.90;60.30
21439;DHT22;10880;50.302;18.736;2022-07-05T15:27:45;25.90;61.30
21439;DHT22;10880;50.302;18.736;2022-07-05T15:30:12;25.90;60.70
21439;DHT22;10880;50.302;18.736;2022-07-05T15:32:46;25.90;61.10
21439;DHT22;10880;50.302;18.736;2022-07-05T15:35:13;25.90;60.50
21439;DHT22;10880;50.302;18.736;2022-07-05T15:37:40;25.90;60.80
21439;DHT22;10880;50.302;18.736;2022-07-05T15:40:09;25.90;60.50
21439;DHT22;10880;50.302;18.736;2022-07-05T15:42:37;25.80;61.10
21439;DHT22;10880;50.302;18.736;2022-07-05T15:45:04;25.80;60.30
21439;DHT22;10880;50.302;18.736;2022-07-05T15:47:32;25.80;61.00
21439;DHT22;10880;50.302;18.736;2022-07-05T15:50:00;25.80;60.70
21439;DHT22;10880;50.302;18.736;2022-07-05T15:52:27;25.80;60.40
21439;DHT22;10880;50.302;18.736;2022-07-05T15:54:53;25.80;60.30
21439;DHT22;10880;50.302;18.736;2022-07-05T15:57:21;25.70;59.90
21439;DHT22;10880;50.302;18.736;2022-07-05T15:59:52;25.70;60.80